Terminal Aerodrome Forecast
Issued by NWS

Home | Current Version | Previous Version | Text Only | Print | Product List | Glossary On
Versions: 1 2 3 4 5 6 7 8 9 10 11 12 13 14 15
000
FTUS43 KPAH 091100
TAFCGI
TAF
KCGI 091136Z 0912/1012 30003KT P6SM FEW070
     FM091500 32006KT P6SM SCT050
     FM100000 01003KT P6SM SCT060=

USA.gov is the U.S. government's official web portal to all federal, state and local government web resources and services.